Аэропорт: Габала. Габала

ICAO: UBBQ

METAR:
2019/03/26 13:00
UBBQ 261300Z 25004KT 9999 BKN032 07/02 Q1017 R16/CLRD// NOSIG RMK MT OBSC
METAR:
Информация по данной станции не доступна